Stocks held by Nippon India Small Cap Fund

#Stock NamePrevious Number of SharesPrevious DateCurrent Number of SharesPercentage ChangeLast Changed
1Data Patterns (India) Ltd508,5712024-06-23508,5710.00%2024-06-24
2CIE Automotive India Ltd6,966,7842024-06-236,966,7840.00%2024-06-24
3Capital Small Finance Bank Ltd1,566,4722024-06-231,566,4720.00%2024-06-24
4Bayer CropScience Ltd531,4602024-06-23531,4600.00%2024-06-24
5Bajel Projects Ltd3,062,0712024-06-233,062,0710.00%2024-06-24
6Azad Engineering Ltd116,9002024-06-23403,144244.86%2024-06-24
7Archean Chemical Industries Ltd496,0732024-06-231,373,373176.85%2024-06-24
8Paras Defence and Space Technologies Ltd547,3262024-06-23547,3260.00%2024-06-24
9Aeroflex Industries Ltd2,931,3542024-06-232,931,3540.00%2024-06-24
10Zensar Technologies Ltd4,039,1762024-06-234,039,1760.00%2024-06-24
11Voltas Ltd4,376,9362024-06-232,060,441-52.93%2024-06-24
12Voltamp Transformers Ltd864,3982024-06-23864,3980.00%2024-06-24
13Vindhya Telelinks Ltd993,4012024-06-23993,4010.00%2024-06-24
14Vesuvius India Ltd94,1772024-06-23288,000205.81%2024-06-24
15Vardhman Textiles Ltd (VTL)3,197,3752024-06-237,742,756142.16%2024-06-24
16VST Tillers Tractors Ltd543,6912024-06-23543,6910.00%2024-06-24
17UTI Asset Management Company Ltd2,267,2442024-06-232,267,2440.00%2024-06-24
18Union Bank of India5,500,0002024-06-235,500,0000.00%2024-06-24
19Tube Investments of India Ltd3,267,5592024-06-233,267,5590.00%2024-06-24
20TTK Prestige Ltd1,333,2022024-06-231,333,2020.00%2024-06-24
21Triveni Engineering & Industries Ltd268,0002024-06-232,787,855940.24%2024-06-24
22Timken India Ltd1,134,2182024-06-231,134,2180.00%2024-06-24
23Thyrocare Technologies Ltd1,778,1652024-06-231,778,1650.00%2024-06-24
24Texmaco Rail & Engineering Ltd11,408,7832024-06-2311,408,7830.00%2024-06-24
25Tejas Networks Ltd106,9092024-06-235,763,6975,291.22%2024-06-24
26TD Power Systems Ltd (TDPS)11,275,3202024-06-2311,275,3200.00%2024-06-24
27Sundaram Finance Holdings Ltd9,378,0062024-06-239,378,0060.00%2024-06-24
28Subros Ltd353,0002024-06-23985,000179.04%2024-06-24
29Sonata Software Ltd1,544,0842024-06-231,544,0840.00%2024-06-24
30Sheela Foam Ltd3,372,5372024-06-231,168,831-65.34%2024-06-24
31SIS Ltd172024-06-232,942,85617,310,817.65%2024-06-24
32SEAMEC Ltd911,4792024-06-23911,4790.00%2024-06-24
33Sanofi India Ltd196,3422024-06-23196,3420.00%2024-06-24
34Sandhar Technologies Ltd2,425,8522024-06-232,425,8520.00%2024-06-24
35REC Ltd19,673,9772024-06-237,290,321-62.94%2024-06-24
36Rallis India Ltd500,0002024-06-234,981,574896.31%2024-06-24
37Radico Khaitan Ltd2,228,9072024-06-232,228,9070.00%2024-06-24
38PVR Inox Ltd834,2142024-06-23834,2140.00%2024-06-24
39Procter & Gamble Health Ltd16,0002024-06-23596,8073,630.04%2024-06-24
40Praj Industries Ltd5,381,6272024-06-235,381,6270.00%2024-06-24
41Polyplex Corporation Ltd657,5172024-06-23657,5170.00%2024-06-24
42Pokarna Ltd1,223,6452024-06-231,223,6450.00%2024-06-24
43PNC Infratech Ltd2,042,5072024-06-233,282,29160.70%2024-06-24
44PNB Housing Finance Ltd815,7092024-06-232,232,891173.74%2024-06-24
45PG Electroplast Ltd12,9622024-06-23555,5564,186.04%2024-06-24
46Pfizer Ltd112,1092024-06-23947,910745.53%2024-06-24
47Orient Electric Ltd9,974,2282024-06-239,974,2280.00%2024-06-24
48Orient Cement Ltd5,865,2682024-06-235,865,2680.00%2024-06-24
49NLC India Ltd16,251,7512024-06-2316,251,7510.00%2024-06-24
50NIIT Learning Systems Ltd286,2322024-06-2311,320,2403,854.92%2024-06-24
51NIIT Ltd11,111,0662024-06-2311,111,0660.00%2024-06-24
52Mishra Dhatu Nigam Ltd53,9132024-06-231,498,6862,679.82%2024-06-24
53Metropolis Healthcare Ltd550,0002024-06-231,085,41197.35%2024-06-24
54LG Balakrishnan & Bros Ltd55,0002024-06-23890,9181,519.85%2024-06-24
55Lemon Tree Hotels Ltd11,032,7392024-06-2311,032,7390.00%2024-06-24
56Lakshmi Machine Works Ltd5,4762024-06-2354,460894.52%2024-06-24
57La Opala RG Ltd83,1762024-06-231,882,2052,162.92%2024-06-24
58Kirloskar Oil Engines Ltd3,571,4292024-06-233,571,4290.00%2024-06-24
59Karur Vysya Bank Ltd31,784,0622024-06-2331,784,0620.00%2024-06-24
60K P R Mill Ltd (KPRMILL)4,293,6222024-06-234,293,6220.00%2024-06-24
61Jyothy Labs Ltd1,720,0002024-06-239,850,030472.68%2024-06-24
62Just Dial Ltd2,156,3272024-06-231,627,157-24.54%2024-06-24
63Jubilant Ingrevia Ltd1,082,1152024-06-231,156,2996.86%2024-06-24
64JTEKT India Ltd914,0002024-06-2314,429,1321,478.68%2024-06-24
65JM Financial Ltd10,969,1612024-06-236,545,936-40.32%2024-06-24
66JK Lakshmi Cement Ltd958,1062024-06-231,063,05410.95%2024-06-24
67J B Chemicals & Pharmaceuticals Ltd804,7042024-06-23937,87216.55%2024-06-24
68Interglobe Aviation Ltd1,619,4432024-06-231,619,4430.00%2024-06-24
69Inox Wind Ltd8,960,0002024-06-238,960,0000.00%2024-06-24
70Indoco Remedies Ltd609,7932024-06-232,744,559350.08%2024-06-24
71Honda India Power Products Ltd844,7302024-06-23844,7300.00%2024-06-24
72Hindustan Aeronautics Ltd1,477,0762024-06-231,477,0760.00%2024-06-24
73HG Infra Engineering Ltd191,7012024-06-232,835,5901,379.17%2024-06-24
74Gujarat Fluorochemicals Ltd528,8922024-06-23281,735-46.73%2024-06-24
75Grindwell Norton Ltd1,083,2722024-06-231,083,2720.00%2024-06-24
76Greenlam Industries Ltd88,5922024-06-232,211,4382,396.21%2024-06-24
77Gokaldas Exports Ltd156,5002024-06-234,103,7792,522.22%2024-06-24
78Godrej Agrovet Ltd1,729,5152024-06-232,240,86229.57%2024-06-24
79Gland Pharma Ltd1,696,9332024-06-231,696,9330.00%2024-06-24
80Genus Power Infrastructures Ltd12,838,6402024-06-2312,838,6400.00%2024-06-24
81Gabriel India Ltd62,6792024-06-231,561,8952,391.90%2024-06-24
82Tata Steel Long Products Ltd2,100,4162024-06-232,100,4160.00%2024-06-24
83Tata Consumer Products Ltd2,269,6682024-06-233,470,86352.92%2024-06-24
84Tata Coffee Ltd412024-06-232,639,3656,437,375.61%2024-06-24
85Finolex Cables Ltd3,014,2222024-06-233,014,2220.00%2024-06-24
86Fineotex Chemical Ltd38,4402024-06-234,041,82810,414.64%2024-06-24
87FDC Ltd4,257,2622024-06-234,257,2620.00%2024-06-24
88Esab India Ltd326,8822024-06-23326,8820.00%2024-06-24
89Equitas Small Finance Bank Ltd11,099,3642024-06-2311,099,3640.00%2024-06-24
90eClerx Services Ltd1,637,1362024-06-231,637,1360.00%2024-06-24
91Deepak Nitrite Ltd1,000,0002024-06-231,000,0000.00%2024-06-24
92Cyient DLM Ltd902,1502024-06-23902,1500.00%2024-06-24
93Cyient Ltd2,477,1512024-06-232,477,1510.00%2024-06-24
94Coal India Ltd7,542,3752024-06-237,542,3750.00%2024-06-24
95Chambal Fertilisers & Chemicals Ltd2,015,4372024-06-234,389,471117.79%2024-06-24
96Century Textiles & Industries Ltd1,039,5782024-06-232,167,490108.50%2024-06-24
97Central Depository Services (India) Ltd667,1622024-06-232,014,859202.00%2024-06-24
98CCL Products (India) Ltd909,1352024-06-23909,1350.00%2024-06-24
99Castrol India Ltd7,482,0002024-06-237,482,0000.00%2024-06-24
100Carborundum Universal Ltd3,265,5822024-06-233,265,5820.00%2024-06-24
101Can Fin Homes Ltd875,0002024-06-231,193,04236.35%2024-06-24
102Brigade Enterprises Ltd1,669,5062024-06-231,509,548-9.58%2024-06-24
103Blue Star Ltd5,308,4202024-06-232,769,395-47.83%2024-06-24
104Blue Dart Express Ltd62,9572024-06-23306,428386.73%2024-06-24
105Birlasoft Ltd2,802,7092024-06-232,802,7090.00%2024-06-24
106Birla Corporation Ltd2,670,1322024-06-232,670,1320.00%2024-06-24
107Bharat Heavy Electricals Ltd25,000,0002024-06-2325,000,0000.00%2024-06-24
108Bharat Dynamics Ltd416,7452024-06-23416,7450.00%2024-06-24
109Bank of Baroda8,236,9182024-06-2313,000,00057.83%2024-06-24
110Balrampur Chini Mills Ltd1,000,0002024-06-239,291,212829.12%2024-06-24
111Bajaj Electricals Ltd3,062,0712024-06-233,062,0710.00%2024-06-24
112Bajaj Consumer Care Ltd72,2322024-06-236,681,2679,149.73%2024-06-24
113Automotive Axles Ltd4,8502024-06-23691,00014,147.42%2024-06-24
114Astrazeneca Pharma India Ltd645,8502024-06-23645,8500.00%2024-06-24
115Astra Microwave Products Ltd70,1482024-06-232,346,0093,244.37%2024-06-24
116Astec Lifesciences Ltd5,3712024-06-23468,5898,624.43%2024-06-24
117Ashoka Buildcon Ltd3,266,9722024-06-233,266,9720.00%2024-06-24
118Asahi India Glass Ltd88,6522024-06-231,792,8131,922.30%2024-06-24
119Apollo Tyres Ltd6,354,3802024-06-236,354,3800.00%2024-06-24
120Apex Frozen Foods Ltd501,9912024-06-23501,9910.00%2024-06-24
121Apar Industries Ltd341,9772024-06-231,080,116215.84%2024-06-24
122Angel One Ltd494,8652024-06-23494,8650.00%2024-06-24
123Ajanta Pharma Ltd775,2592024-06-231,977,744155.11%2024-06-24
124Aditya Birla Fashion & Retail Ltd6,000,0002024-06-237,755,02929.25%2024-06-24
125Zydus Wellness Ltd140,0002024-06-232,221,1061,486.50%2024-06-24
126Fine Organic Industries Ltd752,7642024-06-23752,7640.00%2024-06-24
127Dixon Technologies (India) Ltd940,3642024-06-23549,728-41.54%2024-06-24
128Kirloskar Brothers Ltd25,2002024-06-234,365,46917,223.29%2024-06-24
129West Coast Paper Mills Ltd3,348,3102024-06-233,348,3100.00%2024-06-24

About the Author

Author Avatar
Getaka

Getaka, CFA, a financial analyst with 15 years of experience in the industry. Getaka holds an MBA degree and the Chartered Financial Analyst designation, demonstrating his profound understanding of financial analysis and investment management. Throughout his career, he has conducted numerous financial analyses and due diligence processes for companies in the industry, and has a strong track record of identifying key trends and opportunities. He leverages his expertise to deliver a thorough financial analysis of a company, encompassing its financial performance, key ratios, future prospects, and risks. Getaka is committed to providing accurate, reliable, and trustworthy information to help readers make informed decisions about their finances and investments.